createdAt,value
2022-09-29T00:01:08.000Z,21.7
2022-09-29T00:02:17.000Z,21.7
2022-09-29T00:03:26.000Z,21.7
2022-09-29T00:04:37.000Z,21.7
2022-09-29T00:05:47.000Z,21.7
2022-09-29T00:06:57.000Z,21.7
2022-09-29T00:08:07.000Z,21.7
2022-09-29T00:09:17.000Z,21.6
2022-09-29T00:10:27.000Z,21.7
2022-09-29T00:11:37.000Z,21.7
2022-09-29T00:12:47.000Z,21.6
2022-09-29T00:13:57.000Z,21.7
2022-09-29T00:15:08.000Z,21.7
2022-09-29T00:16:18.000Z,21.6
2022-09-29T00:17:28.000Z,21.6
2022-09-29T00:18:37.000Z,21.6
2022-09-29T00:19:47.000Z,21.7
2022-09-29T00:20:57.000Z,21.6
2022-09-29T00:22:07.000Z,21.6
2022-09-29T00:23:17.000Z,21.6
2022-09-29T00:24:28.000Z,21.6
2022-09-29T00:25:38.000Z,21.6
2022-09-29T00:26:47.000Z,21.6
2022-09-29T00:27:56.000Z,21.6
2022-09-29T00:29:05.000Z,21.6
2022-09-29T00:30:14.000Z,21.6
2022-09-29T00:31:24.000Z,21.6
2022-09-29T00:32:34.000Z,21.6
2022-09-29T00:33:45.000Z,21.6
2022-09-29T00:34:55.000Z,21.6
2022-09-29T00:36:05.000Z,21.6
2022-09-29T00:37:15.000Z,21.6
2022-09-29T00:38:25.000Z,21.6
2022-09-29T00:39:35.000Z,21.6
2022-09-29T00:40:45.000Z,21.6
2022-09-29T00:41:55.000Z,21.6
2022-09-29T00:43:05.000Z,21.6
2022-09-29T00:44:16.000Z,21.6
2022-09-29T00:45:25.000Z,21.6
2022-09-29T00:46:35.000Z,21.6
2022-09-29T00:47:45.000Z,21.6
2022-09-29T00:48:55.000Z,21.6
2022-09-29T00:50:05.000Z,21.6
2022-09-29T00:51:15.000Z,21.6
2022-09-29T00:52:25.000Z,21.6
2022-09-29T00:53:35.000Z,21.6
2022-09-29T00:54:44.000Z,21.6
2022-09-29T00:57:03.000Z,21.6
2022-09-29T00:58:12.000Z,21.6
2022-09-29T00:59:22.000Z,21.6
2022-09-29T01:00:31.000Z,21.6
2022-09-29T01:01:41.000Z,21.6
2022-09-29T01:02:52.000Z,21.6
2022-09-29T01:04:02.000Z,21.6
2022-09-29T01:05:12.000Z,21.6
2022-09-29T01:06:22.000Z,21.6
2022-09-29T01:07:32.000Z,21.6
2022-09-29T01:08:42.000Z,21.6
2022-09-29T01:09:52.000Z,21.6
2022-09-29T01:11:02.000Z,21.6
2022-09-29T01:12:12.000Z,21.6
2022-09-29T01:13:23.000Z,21.6
2022-09-29T01:14:33.000Z,21.6
2022-09-29T01:15:42.000Z,21.6
2022-09-29T01:16:52.000Z,21.6
2022-09-29T01:18:02.000Z,21.6
2022-09-29T01:19:12.000Z,21.5
2022-09-29T01:20:22.000Z,21.6
2022-09-29T01:21:32.000Z,21.5
2022-09-29T01:22:42.000Z,21.6
2022-09-29T01:23:51.000Z,21.6
2022-09-29T01:25:00.000Z,21.6
2022-09-29T01:26:09.000Z,21.5
2022-09-29T01:27:19.000Z,21.5
2022-09-29T01:28:29.000Z,21.5
2022-09-29T01:29:39.000Z,21.5
2022-09-29T01:30:49.000Z,21.5
2022-09-29T01:32:00.000Z,21.5
2022-09-29T01:33:10.000Z,21.5
2022-09-29T01:34:20.000Z,21.5
2022-09-29T01:35:30.000Z,21.5
2022-09-29T01:36:40.000Z,21.5
2022-09-29T01:37:50.000Z,21.5
2022-09-29T01:39:00.000Z,21.5
2022-09-29T01:40:10.000Z,21.5
2022-09-29T01:41:20.000Z,21.5
2022-09-29T01:42:30.000Z,21.5
2022-09-29T01:43:40.000Z,21.5
2022-09-29T01:44:50.000Z,21.5
2022-09-29T01:46:00.000Z,21.5
2022-09-29T01:47:10.000Z,21.5
2022-09-29T01:48:20.000Z,21.5
2022-09-29T01:49:29.000Z,21.5
2022-09-29T01:50:38.000Z,21.5
2022-09-29T01:51:48.000Z,21.5
2022-09-29T01:52:57.000Z,21.5
2022-09-29T01:54:07.000Z,21.5
2022-09-29T01:55:17.000Z,21.5
2022-09-29T01:56:27.000Z,21.5
2022-09-29T01:57:37.000Z,21.5
2022-09-29T01:58:47.000Z,21.5
2022-09-29T01:59:57.000Z,21.5
2022-09-29T02:01:08.000Z,21.5
2022-09-29T02:02:18.000Z,21.5
2022-09-29T02:03:28.000Z,21.5
2022-09-29T02:04:38.000Z,21.5
2022-09-29T02:05:48.000Z,21.5
2022-09-29T02:06:58.000Z,21.5
2022-09-29T02:08:07.000Z,21.5
2022-09-29T02:09:17.000Z,21.5
2022-09-29T02:10:28.000Z,21.5
2022-09-29T02:11:38.000Z,21.5
2022-09-29T02:12:48.000Z,21.5
2022-09-29T02:13:58.000Z,21.4
2022-09-29T02:15:08.000Z,21.4
2022-09-29T02:16:18.000Z,21.5
2022-09-29T02:17:28.000Z,21.4
2022-09-29T02:18:38.000Z,21.4
2022-09-29T02:19:48.000Z,21.4
2022-09-29T02:20:59.000Z,21.4
2022-09-29T02:22:09.000Z,21.4
2022-09-29T02:23:18.000Z,21.4
2022-09-29T02:24:28.000Z,21.4
2022-09-29T02:25:38.000Z,21.4
2022-09-29T02:26:48.000Z,21.4
2022-09-29T02:27:58.000Z,21.4
2022-09-29T02:29:08.000Z,21.4
2022-09-29T02:30:18.000Z,21.4
2022-09-29T02:31:29.000Z,21.4
2022-09-29T02:32:39.000Z,21.4
2022-09-29T02:33:48.000Z,21.4
2022-09-29T02:34:57.000Z,21.4
2022-09-29T02:36:07.000Z,21.4
2022-09-29T02:37:17.000Z,21.4
2022-09-29T02:38:26.000Z,21.4
2022-09-29T02:39:36.000Z,21.4
2022-09-29T02:40:46.000Z,21.4
2022-09-29T02:41:56.000Z,21.4
2022-09-29T02:43:06.000Z,21.4
2022-09-29T02:44:16.000Z,21.4
2022-09-29T02:45:26.000Z,21.4
2022-09-29T02:46:36.000Z,21.4
2022-09-29T02:47:46.000Z,21.4
2022-09-29T02:48:56.000Z,21.4
2022-09-29T02:50:07.000Z,21.4
2022-09-29T02:51:17.000Z,21.4
2022-09-29T02:52:27.000Z,21.4
2022-09-29T02:53:37.000Z,21.4
2022-09-29T02:54:46.000Z,21.4
2022-09-29T02:55:56.000Z,21.4
2022-09-29T02:57:06.000Z,21.4
2022-09-29T02:58:16.000Z,21.4
2022-09-29T02:59:26.000Z,21.4
2022-09-29T03:00:37.000Z,21.4
2022-09-29T03:01:47.000Z,21.4
2022-09-29T03:02:57.000Z,21.4
2022-09-29T03:04:07.000Z,21.4
2022-09-29T03:05:17.000Z,21.4
2022-09-29T03:06:27.000Z,21.4
2022-09-29T03:07:37.000Z,21.4
2022-09-29T03:08:47.000Z,21.4
2022-09-29T03:09:57.000Z,21.4
2022-09-29T03:11:07.000Z,21.4
2022-09-29T03:12:17.000Z,21.3
2022-09-29T03:13:27.000Z,21.4
2022-09-29T03:14:37.000Z,21.4
2022-09-29T03:15:47.000Z,21.4
2022-09-29T03:16:57.000Z,21.4
2022-09-29T03:18:07.000Z,21.3
2022-09-29T03:19:17.000Z,21.3
2022-09-29T03:20:27.000Z,21.3
2022-09-29T03:21:37.000Z,21.3
2022-09-29T03:22:46.000Z,21.4
2022-09-29T03:23:56.000Z,21.3
2022-09-29T03:25:06.000Z,21.3
2022-09-29T03:26:16.000Z,21.3
2022-09-29T03:27:26.000Z,21.3
2022-09-29T03:28:36.000Z,21.3
2022-09-29T03:29:47.000Z,21.3
2022-09-29T03:30:57.000Z,21.3
2022-09-29T03:32:07.000Z,21.3
2022-09-29T03:33:17.000Z,21.3
2022-09-29T03:34:27.000Z,21.3
2022-09-29T03:35:37.000Z,21.3
2022-09-29T03:36:47.000Z,21.3
2022-09-29T03:37:56.000Z,21.3
2022-09-29T03:39:07.000Z,21.3
2022-09-29T03:40:17.000Z,21.3
2022-09-29T03:41:27.000Z,21.3
2022-09-29T03:42:37.000Z,21.3
2022-09-29T03:43:47.000Z,21.3
2022-09-29T03:44:56.000Z,21.3
2022-09-29T03:46:05.000Z,21.3
2022-09-29T03:47:14.000Z,21.3
2022-09-29T03:48:24.000Z,21.3
2022-09-29T03:49:34.000Z,21.3
2022-09-29T03:50:44.000Z,21.3
2022-09-29T03:51:54.000Z,21.3
2022-09-29T03:54:14.000Z,21.3
2022-09-29T03:55:24.000Z,21.3
2022-09-29T03:56:34.000Z,21.3
2022-09-29T03:57:44.000Z,21.3
2022-09-29T03:58:55.000Z,21.3
2022-09-29T04:00:05.000Z,21.3
2022-09-29T04:01:15.000Z,21.3
2022-09-29T04:02:25.000Z,21.3
2022-09-29T04:03:34.000Z,21.2
2022-09-29T04:04:44.000Z,21.3
2022-09-29T04:05:54.000Z,21.2
2022-09-29T04:07:04.000Z,21.2
2022-09-29T04:08:15.000Z,21.2
2022-09-29T04:09:25.000Z,21.2
2022-09-29T04:10:35.000Z,21.2
2022-09-29T04:11:45.000Z,21.2
2022-09-29T04:12:54.000Z,21.2
2022-09-29T04:15:13.000Z,21.2
2022-09-29T04:16:22.000Z,21.2
2022-09-29T04:17:32.000Z,21.2
2022-09-29T04:18:42.000Z,21.2
2022-09-29T04:19:52.000Z,21.2
2022-09-29T04:21:02.000Z,21.2
2022-09-29T04:22:12.000Z,21.2
2022-09-29T04:23:22.000Z,21.2
2022-09-29T04:24:32.000Z,21.2
2022-09-29T04:25:42.000Z,21.2
2022-09-29T04:26:52.000Z,21.2
2022-09-29T04:28:03.000Z,21.2
2022-09-29T04:29:13.000Z,21.2
2022-09-29T04:30:23.000Z,21.2
2022-09-29T04:31:33.000Z,21.2
2022-09-29T04:32:42.000Z,21.2
2022-09-29T04:33:52.000Z,21.2
2022-09-29T04:35:02.000Z,21.2
2022-09-29T04:36:12.000Z,21.2
2022-09-29T04:37:23.000Z,21.2
2022-09-29T04:38:33.000Z,21.2
2022-09-29T04:39:43.000Z,21.2
2022-09-29T04:40:52.000Z,21.2
2022-09-29T04:42:01.000Z,21.2
2022-09-29T04:43:11.000Z,21.2
2022-09-29T04:44:21.000Z,21.2
2022-09-29T04:45:31.000Z,21.2
2022-09-29T04:46:41.000Z,21.2
2022-09-29T04:47:50.000Z,21.2
2022-09-29T04:49:00.000Z,21.2
2022-09-29T04:50:10.000Z,21.2
2022-09-29T04:51:20.000Z,21.2
2022-09-29T04:52:30.000Z,21.2
2022-09-29T04:53:40.000Z,21.2
2022-09-29T04:54:50.000Z,21.2
2022-09-29T04:56:00.000Z,21.2
2022-09-29T04:57:11.000Z,21.2
2022-09-29T04:58:21.000Z,21.2
2022-09-29T04:59:31.000Z,21.2
2022-09-29T05:00:41.000Z,21.2
2022-09-29T05:01:51.000Z,21.2
2022-09-29T05:03:00.000Z,21.1
2022-09-29T05:04:10.000Z,21.1
2022-09-29T05:05:20.000Z,21.1
2022-09-29T05:06:31.000Z,21.1
2022-09-29T05:07:41.000Z,21.1
2022-09-29T05:08:51.000Z,21.2
2022-09-29T05:10:01.000Z,21.2
2022-09-29T05:11:10.000Z,21.2
2022-09-29T05:12:19.000Z,21.2
2022-09-29T05:13:29.000Z,21.2
2022-09-29T05:14:38.000Z,21.2
2022-09-29T05:15:48.000Z,21.2
2022-09-29T05:16:58.000Z,21.2
2022-09-29T05:18:08.000Z,21.2
2022-09-29T05:19:18.000Z,21.2
2022-09-29T05:20:28.000Z,21.2
2022-09-29T05:21:38.000Z,21.2
2022-09-29T05:22:48.000Z,21.2
2022-09-29T05:23:58.000Z,21.2
2022-09-29T05:25:08.000Z,21.3
2022-09-29T05:26:19.000Z,21.3
2022-09-29T05:27:29.000Z,21.3
2022-09-29T05:28:39.000Z,21.3
2022-09-29T05:29:49.000Z,21.4
2022-09-29T05:30:58.000Z,21.4
2022-09-29T05:32:08.000Z,21.4
2022-09-29T05:33:18.000Z,21.4
2022-09-29T05:34:28.000Z,21.4
2022-09-29T05:35:39.000Z,21.5
2022-09-29T05:36:49.000Z,21.5
2022-09-29T05:37:59.000Z,21.5
2022-09-29T05:39:08.000Z,21.5
2022-09-29T05:40:17.000Z,21.6
2022-09-29T05:41:27.000Z,21.6
2022-09-29T05:42:37.000Z,21.6
2022-09-29T05:43:46.000Z,21.7
2022-09-29T05:44:56.000Z,21.7
2022-09-29T05:46:06.000Z,21.8
2022-09-29T05:47:16.000Z,21.8
2022-09-29T05:48:26.000Z,21.8
2022-09-29T05:49:36.000Z,21.9
2022-09-29T05:50:46.000Z,21.9
2022-09-29T05:53:06.000Z,21.9
2022-09-29T05:54:16.000Z,22
2022-09-29T05:55:27.000Z,22
2022-09-29T05:56:37.000Z,22.1
2022-09-29T05:57:47.000Z,22.1
2022-09-29T05:58:57.000Z,22.1
2022-09-29T06:00:06.000Z,22.1
2022-09-29T06:01:16.000Z,22.1
2022-09-29T06:02:26.000Z,22.2
2022-09-29T06:03:36.000Z,22.2
2022-09-29T06:04:46.000Z,22.2
2022-09-29T06:05:57.000Z,22.2
2022-09-29T06:07:07.000Z,22.2
2022-09-29T06:08:17.000Z,22.3
2022-09-29T06:09:26.000Z,22.2
2022-09-29T06:10:35.000Z,22.2
2022-09-29T06:11:45.000Z,22.3
2022-09-29T06:12:55.000Z,22.2
2022-09-29T06:14:05.000Z,22.3
2022-09-29T06:15:16.000Z,22.2
2022-09-29T06:16:26.000Z,22.3
2022-09-29T06:17:36.000Z,22.3
2022-09-29T06:18:46.000Z,22.3
2022-09-29T06:19:56.000Z,22.3
2022-09-29T06:21:06.000Z,22.2
2022-09-29T06:22:16.000Z,22.2
2022-09-29T06:23:26.000Z,22.2
2022-09-29T06:24:37.000Z,22.2
2022-09-29T06:25:46.000Z,22.2
2022-09-29T06:26:56.000Z,22.3
2022-09-29T06:28:06.000Z,22.2
2022-09-29T06:29:16.000Z,22.3
2022-09-29T06:30:26.000Z,22.2
2022-09-29T06:31:36.000Z,22.2
2022-09-29T06:32:46.000Z,22.2
2022-09-29T06:33:55.000Z,22.2
2022-09-29T06:36:15.000Z,22.2
2022-09-29T06:38:34.000Z,22.2
2022-09-29T06:39:43.000Z,22.2
2022-09-29T06:40:52.000Z,22.2
2022-09-29T06:42:01.000Z,22.2
2022-09-29T06:43:11.000Z,22.2
2022-09-29T06:44:21.000Z,22.2
2022-09-29T06:45:31.000Z,22.2
2022-09-29T06:46:41.000Z,22.2
2022-09-29T06:47:51.000Z,22.2
2022-09-29T06:49:01.000Z,22.2
2022-09-29T06:50:11.000Z,22.2
2022-09-29T06:51:21.000Z,22.2
2022-09-29T06:52:31.000Z,22.2
2022-09-29T06:53:42.000Z,22.2
2022-09-29T06:54:52.000Z,22.2
2022-09-29T06:56:02.000Z,22.2
2022-09-29T06:57:12.000Z,22.2
2022-09-29T06:58:21.000Z,22.2
2022-09-29T06:59:31.000Z,22.2
2022-09-29T07:00:41.000Z,22.2
2022-09-29T07:01:51.000Z,22.2
2022-09-29T07:03:02.000Z,22.2
2022-09-29T07:04:12.000Z,22.2
2022-09-29T07:05:22.000Z,22.2
2022-09-29T07:06:31.000Z,22.2
2022-09-29T07:07:40.000Z,22.2
2022-09-29T07:08:49.000Z,22.3
2022-09-29T07:09:58.000Z,22.3
2022-09-29T07:11:08.000Z,22.3
2022-09-29T07:12:19.000Z,22.3
2022-09-29T07:13:29.000Z,22.3
2022-09-29T07:14:39.000Z,22.3
2022-09-29T07:15:49.000Z,22.3
2022-09-29T07:16:59.000Z,22.3
2022-09-29T07:18:09.000Z,22.3
2022-09-29T07:19:19.000Z,22.4
2022-09-29T07:20:29.843Z,22.4
2022-09-29T07:21:39.000Z,22.4
2022-09-29T07:22:50.000Z,22.4
2022-09-29T07:24:00.000Z,22.4
2022-09-29T07:25:09.000Z,22.4
2022-09-29T07:26:19.000Z,22.4
2022-09-29T07:27:29.000Z,22.4
2022-09-29T07:28:39.000Z,22.4
2022-09-29T07:29:49.000Z,22.4
2022-09-29T07:30:59.000Z,22.4
2022-09-29T07:32:10.000Z,22.4
2022-09-29T07:33:19.000Z,22.4
2022-09-29T07:34:28.000Z,22.4
2022-09-29T07:35:37.000Z,22.4
2022-09-29T07:36:46.000Z,22.4
2022-09-29T07:37:56.000Z,22.4
2022-09-29T07:39:06.000Z,22.5
2022-09-29T07:40:16.000Z,22.5
2022-09-29T07:42:37.000Z,22.5
2022-09-29T07:43:46.000Z,22.5
2022-09-29T07:44:56.000Z,22.5
2022-09-29T07:46:06.000Z,22.5
2022-09-29T07:47:16.000Z,22.5
2022-09-29T07:48:26.000Z,22.5
2022-09-29T07:49:36.000Z,22.5
2022-09-29T07:50:46.000Z,22.6
2022-09-29T07:51:57.000Z,22.6
2022-09-29T07:53:07.000Z,22.6
2022-09-29T07:54:17.000Z,22.6
2022-09-29T07:55:27.000Z,22.6
2022-09-29T07:56:37.000Z,22.6
2022-09-29T07:57:47.000Z,22.6
2022-09-29T07:58:56.000Z,22.6
2022-09-29T08:00:06.000Z,22.6
2022-09-29T08:01:16.000Z,22.6
2022-09-29T08:02:25.000Z,22.6
2022-09-29T08:03:34.000Z,22.6
2022-09-29T08:04:43.000Z,22.6
2022-09-29T08:05:53.000Z,22.6
2022-09-29T08:07:03.000Z,22.6
2022-09-29T08:08:13.000Z,22.6
2022-09-29T08:09:23.000Z,22.7
2022-09-29T08:11:44.000Z,22.7
2022-09-29T08:12:54.000Z,22.7
2022-09-29T08:14:04.000Z,22.7
2022-09-29T08:15:14.000Z,22.7
2022-09-29T08:16:24.000Z,22.7
2022-09-29T08:17:34.000Z,22.7
2022-09-29T08:18:44.000Z,22.7
2022-09-29T08:19:53.000Z,22.7
2022-09-29T08:21:04.000Z,22.7
2022-09-29T08:22:14.000Z,22.7
2022-09-29T08:23:24.000Z,22.7
2022-09-29T08:24:34.000Z,22.7
2022-09-29T08:25:44.000Z,22.7
2022-09-29T08:26:54.000Z,22.8
2022-09-29T08:28:04.000Z,22.8
2022-09-29T08:29:13.000Z,22.7
2022-09-29T08:30:23.000Z,22.7
2022-09-29T08:31:33.000Z,22.7
2022-09-29T08:32:43.000Z,22.7
2022-09-29T08:33:53.000Z,22.7
2022-09-29T08:35:03.000Z,22.7
2022-09-29T08:36:13.000Z,22.7
2022-09-29T08:37:23.000Z,22.7
2022-09-29T08:38:33.000Z,22.7
2022-09-29T08:39:44.000Z,22.7
2022-09-29T08:40:54.000Z,22.7
2022-09-29T08:42:04.000Z,22.7
2022-09-29T08:43:14.000Z,22.7
2022-09-29T08:44:24.000Z,22.7
2022-09-29T08:45:33.000Z,22.7
2022-09-29T08:46:43.000Z,22.7
2022-09-29T08:47:53.000Z,22.7
2022-09-29T08:49:03.000Z,22.7
2022-09-29T08:50:14.000Z,22.7
2022-09-29T08:51:24.000Z,22.7
2022-09-29T08:52:34.000Z,22.7
2022-09-29T08:53:43.000Z,22.7
2022-09-29T08:54:52.000Z,22.7
2022-09-29T08:56:01.000Z,22.7
2022-09-29T08:57:10.000Z,22.7
2022-09-29T08:58:20.000Z,22.7
2022-09-29T08:59:30.000Z,22.7
2022-09-29T09:00:39.000Z,22.7
2022-09-29T09:01:49.000Z,22.7
2022-09-29T09:02:59.000Z,22.7
2022-09-29T09:04:09.000Z,22.7
2022-09-29T09:05:19.000Z,22.8
2022-09-29T09:06:29.000Z,22.8
2022-09-29T09:07:39.000Z,22.8
2022-09-29T09:08:50.000Z,22.8
2022-09-29T09:10:00.000Z,22.8
2022-09-29T09:11:10.000Z,22.8
2022-09-29T09:12:20.000Z,22.8
2022-09-29T09:13:30.000Z,22.8
2022-09-29T09:14:40.000Z,22.8
2022-09-29T09:15:49.000Z,22.9
2022-09-29T09:16:59.000Z,22.9
2022-09-29T09:18:10.000Z,22.9
2022-09-29T09:19:20.000Z,22.9
2022-09-29T09:20:30.000Z,22.9
2022-09-29T09:21:40.000Z,22.9
2022-09-29T09:22:50.000Z,22.9
2022-09-29T09:23:59.000Z,22.9
2022-09-29T09:25:08.000Z,23
2022-09-29T09:26:17.000Z,23
2022-09-29T09:27:27.000Z,23
2022-09-29T09:28:37.000Z,23
2022-09-29T09:29:47.000Z,23
2022-09-29T09:30:57.000Z,23
2022-09-29T09:32:07.000Z,23
2022-09-29T09:33:17.000Z,23
2022-09-29T09:34:27.000Z,23
2022-09-29T09:35:37.000Z,23
2022-09-29T09:36:47.000Z,23
2022-09-29T09:37:58.000Z,23.1
2022-09-29T09:39:08.000Z,23.1
2022-09-29T09:40:18.000Z,23.1
2022-09-29T09:41:28.000Z,23.1
2022-09-29T09:42:37.000Z,23.1
2022-09-29T09:43:47.000Z,23.1
2022-09-29T09:44:57.000Z,23.1
2022-09-29T09:46:07.000Z,23.1
2022-09-29T09:47:18.000Z,23.1
2022-09-29T09:49:38.000Z,23.2
2022-09-29T09:50:48.000Z,23.2
2022-09-29T09:51:57.000Z,23.2
2022-09-29T09:53:06.000Z,23.2
2022-09-29T09:54:15.000Z,23.2
2022-09-29T09:55:24.000Z,23.2
2022-09-29T09:56:35.000Z,23.3
2022-09-29T09:57:45.000Z,23.3
2022-09-29T09:58:55.000Z,23.3
2022-09-29T10:00:05.000Z,23.3
2022-09-29T10:01:15.000Z,23.4
2022-09-29T10:02:25.000Z,23.4
2022-09-29T10:03:35.000Z,23.4
2022-09-29T10:04:45.000Z,23.4
2022-09-29T10:05:55.000Z,23.4
2022-09-29T10:07:06.000Z,23.5
2022-09-29T10:08:16.000Z,23.5
2022-09-29T10:09:26.000Z,23.5
2022-09-29T10:10:35.000Z,23.6
2022-09-29T10:11:45.000Z,23.6
2022-09-29T10:12:55.000Z,23.6
2022-09-29T10:14:05.000Z,23.7
2022-09-29T10:15:15.000Z,23.7
2022-09-29T10:16:26.000Z,23.7
2022-09-29T10:17:36.000Z,23.8
2022-09-29T10:18:45.000Z,23.8
2022-09-29T10:19:54.000Z,23.8
2022-09-29T10:21:04.000Z,23.8
2022-09-29T10:22:14.000Z,23.8
2022-09-29T10:23:23.000Z,23.8
2022-09-29T10:24:32.000Z,23.8
2022-09-29T10:25:43.000Z,23.9
2022-09-29T10:26:53.000Z,24
2022-09-29T10:28:03.000Z,24.2
2022-09-29T10:29:13.000Z,24.5
2022-09-29T10:30:23.000Z,24.7
2022-09-29T10:31:33.000Z,25
2022-09-29T10:32:43.000Z,25.3
2022-09-29T10:33:53.000Z,25.6
2022-09-29T10:35:03.000Z,25.6
2022-09-29T10:36:14.000Z,25.7
2022-09-29T10:37:24.000Z,25.4
2022-09-29T10:38:34.000Z,25.3
2022-09-29T10:39:43.000Z,25.8
2022-09-29T10:40:53.000Z,26.3
2022-09-29T10:42:03.000Z,26.6
2022-09-29T10:43:13.000Z,26.8
2022-09-29T10:44:23.000Z,27
2022-09-29T10:45:34.000Z,27
2022-09-29T10:46:44.000Z,27.1
2022-09-29T10:47:53.000Z,26.5
2022-09-29T10:49:02.000Z,26
2022-09-29T10:50:11.000Z,25.7
2022-09-29T10:51:20.000Z,25.5
2022-09-29T10:52:30.000Z,25.3
2022-09-29T10:53:40.000Z,25.2
2022-09-29T10:54:51.000Z,25
2022-09-29T10:56:01.000Z,24.9
2022-09-29T10:57:11.000Z,24.8
2022-09-29T10:58:21.000Z,24.7
2022-09-29T10:59:31.000Z,24.7
2022-09-29T11:00:41.000Z,24.6
2022-09-29T11:01:51.000Z,24.5
2022-09-29T11:03:01.000Z,24.5
2022-09-29T11:04:11.000Z,24.4
2022-09-29T11:05:22.000Z,24.4
2022-09-29T11:06:31.000Z,24.3
2022-09-29T11:07:41.000Z,24.3
2022-09-29T11:08:51.000Z,24.7
2022-09-29T11:10:01.000Z,25.6
2022-09-29T11:11:11.000Z,26.2
2022-09-29T11:12:21.000Z,26.8
2022-09-29T11:13:31.000Z,27.1
2022-09-29T11:14:41.000Z,27.4
2022-09-29T11:15:50.000Z,27.5
2022-09-29T11:17:00.000Z,27.5
2022-09-29T11:18:10.000Z,27.6
2022-09-29T11:19:20.000Z,27.5
2022-09-29T11:20:30.000Z,27.4
2022-09-29T11:21:40.000Z,27.2
2022-09-29T11:22:50.000Z,26.9
2022-09-29T11:24:00.000Z,26.6
2022-09-29T11:25:11.000Z,26.4
2022-09-29T11:26:21.000Z,26.3
2022-09-29T11:27:31.000Z,26.2
2022-09-29T11:28:41.000Z,26.1
2022-09-29T11:29:51.000Z,26
2022-09-29T11:31:00.000Z,26
2022-09-29T11:32:10.000Z,25.9
2022-09-29T11:33:20.000Z,25.9
2022-09-29T11:34:31.000Z,25.9
2022-09-29T11:35:41.000Z,25.9
2022-09-29T11:36:51.000Z,25.9
2022-09-29T11:38:00.000Z,25.9
2022-09-29T11:39:09.000Z,25.9
2022-09-29T11:40:18.000Z,25.9
2022-09-29T11:41:27.000Z,25.9
2022-09-29T11:42:36.000Z,25.9
2022-09-29T11:43:47.000Z,25.9
2022-09-29T11:44:57.000Z,25.9
2022-09-29T11:46:06.000Z,25.8
2022-09-29T11:47:15.000Z,25.7
2022-09-29T11:48:25.000Z,25.7
2022-09-29T11:49:35.000Z,25.7
2022-09-29T11:50:45.000Z,25.6
2022-09-29T11:51:55.000Z,25.7
2022-09-29T11:53:06.000Z,25.7
2022-09-29T11:54:16.000Z,25.8
2022-09-29T11:55:26.000Z,25.8
2022-09-29T11:56:36.000Z,25.8
2022-09-29T11:57:46.000Z,25.8
2022-09-29T11:58:56.000Z,25.8
2022-09-29T12:00:06.000Z,25.8
2022-09-29T12:01:16.000Z,25.8
2022-09-29T12:02:25.000Z,25.8
2022-09-29T12:03:36.000Z,25.9
2022-09-29T12:04:46.000Z,25.8
2022-09-29T12:05:56.000Z,25.8
2022-09-29T12:07:06.000Z,25.8
2022-09-29T12:08:16.000Z,25.9
2022-09-29T12:09:26.000Z,25.9
2022-09-29T12:10:35.000Z,25.8
2022-09-29T12:11:44.000Z,25.6
2022-09-29T12:12:55.000Z,25.5
2022-09-29T12:14:04.000Z,25.5
2022-09-29T12:15:13.000Z,25.4
2022-09-29T12:16:23.000Z,25.3
2022-09-29T12:17:33.000Z,25.2
2022-09-29T12:18:43.000Z,25.2
2022-09-29T12:19:53.000Z,25.3
2022-09-29T12:21:03.000Z,25.4
2022-09-29T12:22:14.000Z,25.5
2022-09-29T12:23:24.000Z,25.5
2022-09-29T12:24:34.000Z,25.4
2022-09-29T12:25:44.000Z,25.4
2022-09-29T12:26:54.000Z,25.4
2022-09-29T12:28:04.000Z,25.4
2022-09-29T12:29:14.000Z,25.4
2022-09-29T12:30:24.000Z,25.4
2022-09-29T12:31:33.000Z,25.3
2022-09-29T12:32:44.000Z,25.2
2022-09-29T12:33:54.000Z,25.1
2022-09-29T12:35:04.000Z,25.1
2022-09-29T12:36:14.000Z,25.2
2022-09-29T12:37:24.000Z,25.4
2022-09-29T12:38:33.000Z,25.6
2022-09-29T12:39:42.000Z,25.8
2022-09-29T12:40:52.000Z,26
2022-09-29T12:42:03.000Z,26.1
2022-09-29T12:43:13.000Z,26.3
2022-09-29T12:44:22.000Z,26.5
2022-09-29T12:45:31.000Z,26.7
2022-09-29T12:47:51.000Z,27.1
2022-09-29T12:49:01.000Z,27.1
2022-09-29T12:50:11.000Z,27.2
2022-09-29T12:51:22.000Z,27.2
2022-09-29T12:52:32.000Z,27.2
2022-09-29T12:53:42.000Z,27.1
2022-09-29T12:54:52.000Z,27.2
2022-09-29T12:56:02.000Z,27.3
2022-09-29T12:57:12.000Z,27.5
2022-09-29T12:58:22.000Z,27.6
2022-09-29T12:59:32.000Z,27.8
2022-09-29T13:00:41.000Z,28
2022-09-29T13:01:52.000Z,28.2
2022-09-29T13:03:02.000Z,28.5
2022-09-29T13:04:12.000Z,28.7
2022-09-29T13:05:22.000Z,28.9
2022-09-29T13:06:32.000Z,29.1
2022-09-29T13:07:42.000Z,29.3
2022-09-29T13:08:52.000Z,29.4
2022-09-29T13:10:01.000Z,29.5
2022-09-29T13:11:11.000Z,29.6
2022-09-29T13:12:20.000Z,29.3
2022-09-29T13:13:29.000Z,29.4
2022-09-29T13:14:39.000Z,29.7
2022-09-29T13:15:49.000Z,29.9
2022-09-29T13:16:59.000Z,30
2022-09-29T13:18:09.000Z,30.1
2022-09-29T13:19:19.000Z,30.1
2022-09-29T13:20:30.000Z,30.2
2022-09-29T13:21:40.000Z,30.3
2022-09-29T13:22:50.000Z,30.3
2022-09-29T13:24:00.000Z,30.4
2022-09-29T13:25:10.000Z,30.5
2022-09-29T13:26:20.000Z,30.6
2022-09-29T13:27:30.000Z,30.6
2022-09-29T13:28:39.000Z,30.7
2022-09-29T13:29:50.000Z,30.7
2022-09-29T13:31:00.000Z,30.7
2022-09-29T13:32:10.000Z,30.8
2022-09-29T13:33:20.000Z,30.7
2022-09-29T13:34:30.000Z,30
2022-09-29T13:35:40.000Z,29.5
2022-09-29T13:36:49.000Z,29.4
2022-09-29T13:37:58.000Z,29.7
2022-09-29T13:39:08.000Z,29.5
2022-09-29T13:40:19.000Z,29.1
2022-09-29T13:41:28.000Z,28.8
2022-09-29T13:42:37.000Z,28.6
2022-09-29T13:43:47.000Z,28.5
2022-09-29T13:46:07.000Z,29.1
2022-09-29T13:47:17.000Z,29.6
2022-09-29T13:48:27.000Z,29.9
2022-09-29T13:49:38.000Z,30.1
2022-09-29T13:50:48.000Z,30.3
2022-09-29T13:51:58.000Z,30.5
2022-09-29T13:53:08.000Z,30.7
2022-09-29T13:54:18.000Z,30.8
2022-09-29T13:55:28.000Z,30.8
2022-09-29T13:56:38.000Z,30.2
2022-09-29T13:57:47.000Z,29.8
2022-09-29T13:58:58.000Z,29.6
2022-09-29T14:00:08.000Z,29.4
2022-09-29T14:01:18.000Z,29.6
2022-09-29T14:02:28.000Z,29.3
2022-09-29T14:03:38.000Z,29.3
2022-09-29T14:04:48.000Z,29.8
2022-09-29T14:05:58.000Z,30.1
2022-09-29T14:07:07.000Z,30.3
2022-09-29T14:08:16.000Z,30.4
2022-09-29T14:09:27.000Z,29.8
2022-09-29T14:10:36.000Z,29.3
2022-09-29T14:11:45.000Z,29.2
2022-09-29T14:12:55.000Z,29.6
2022-09-29T14:14:05.000Z,29.7
2022-09-29T14:15:15.000Z,29.8
2022-09-29T14:16:25.000Z,29.9
2022-09-29T14:17:35.000Z,29.9
2022-09-29T14:18:46.000Z,29.9
2022-09-29T14:19:56.000Z,29.9
2022-09-29T14:21:06.000Z,29.9
2022-09-29T14:22:16.000Z,29.9
2022-09-29T14:23:26.000Z,29.7
2022-09-29T14:24:36.000Z,29.2
2022-09-29T14:25:46.000Z,28.9
2022-09-29T14:26:55.000Z,28.7
2022-09-29T14:28:06.000Z,28.5
2022-09-29T14:29:16.000Z,28.4
2022-09-29T14:30:26.000Z,28.3
2022-09-29T14:31:36.000Z,28.3
2022-09-29T14:32:46.000Z,28.2
2022-09-29T14:33:56.000Z,28.1
2022-09-29T14:35:05.000Z,28.1
2022-09-29T14:36:14.000Z,28
2022-09-29T14:37:24.000Z,28
2022-09-29T14:38:35.000Z,28.1
2022-09-29T14:39:45.000Z,28.3
2022-09-29T14:40:54.000Z,28.3
2022-09-29T14:42:03.000Z,28.3
2022-09-29T14:43:13.000Z,28.4
2022-09-29T14:44:23.000Z,28.6
2022-09-29T14:46:43.000Z,28.9
2022-09-29T14:47:54.000Z,28.9
2022-09-29T14:49:04.000Z,29
2022-09-29T14:50:14.000Z,29.1
2022-09-29T14:51:24.000Z,29.3
2022-09-29T14:52:34.000Z,29.4
2022-09-29T14:53:44.000Z,29.6
2022-09-29T14:56:04.000Z,29.7
2022-09-29T14:57:14.000Z,29.7
2022-09-29T14:58:24.000Z,29.8
2022-09-29T14:59:34.000Z,29.8
2022-09-29T15:00:44.000Z,29.6
2022-09-29T15:01:54.000Z,29.2
2022-09-29T15:03:04.000Z,29
2022-09-29T15:04:14.000Z,28.9
2022-09-29T15:05:24.000Z,28.7
2022-09-29T15:06:33.000Z,28.6
2022-09-29T15:07:43.000Z,28.4
2022-09-29T15:08:53.000Z,28.3
2022-09-29T15:10:03.000Z,28.2
2022-09-29T15:11:13.000Z,28.1
2022-09-29T15:12:23.000Z,28
2022-09-29T15:13:33.000Z,28.2
2022-09-29T15:14:43.000Z,28.4
2022-09-29T15:15:53.000Z,28.6
2022-09-29T15:17:04.000Z,28.7
2022-09-29T15:18:14.000Z,28.7
2022-09-29T15:19:24.000Z,28.4
2022-09-29T15:20:34.000Z,28.3
2022-09-29T15:21:44.000Z,28.1
2022-09-29T15:22:53.000Z,28
2022-09-29T15:24:03.000Z,27.9
2022-09-29T15:25:13.000Z,28
2022-09-29T15:26:23.000Z,28.3
2022-09-29T15:27:34.000Z,28.5
2022-09-29T15:28:44.000Z,28.6
2022-09-29T15:29:54.000Z,28.7
2022-09-29T15:31:03.000Z,28.8
2022-09-29T15:32:12.000Z,28.9
2022-09-29T15:33:22.000Z,29
2022-09-29T15:34:31.000Z,29
2022-09-29T15:35:41.000Z,29.1
2022-09-29T15:36:51.000Z,29.1
2022-09-29T15:38:00.000Z,29.2
2022-09-29T15:39:09.000Z,29.2
2022-09-29T15:40:19.000Z,29.3
2022-09-29T15:41:29.000Z,29.3
2022-09-29T15:42:39.000Z,29.3
2022-09-29T15:43:49.000Z,29
2022-09-29T15:44:59.000Z,28.9
2022-09-29T15:46:10.000Z,28.9
2022-09-29T15:47:20.000Z,29
2022-09-29T15:48:30.000Z,29.1